Time;durP1;ratioP1;P1;durP2;ratioP2;P2;SDS_P1;SDS_P2;PMS_P1;PMS_P2;Temp;Humidity;BMP_temperature;BMP_pressure;BME280_temperature;BME280_humidity;BME280_pressure;Samples;Min_cycle;Max_cycle;Signal;HPM_P1;HPM_P2
2021/07/02 00:02:13;;;;;;;45.60;18.27;;;;;;;;;;5073751;28;20046;-68
2021/07/02 00:04:58;;;;;;;38.45;17.52;;;;;;;;;;5073580;28;20095;-68
2021/07/02 00:07:43;;;;;;;38.83;16.73;;;;;;;;;;5072733;28;20448;-67
2021/07/02 00:10:29;;;;;;;38.53;17.55;;;;;;;;;;5073309;28;20040;-68
2021/07/02 00:13:14;;;;;;;37.72;18.08;;;;;;;;;;5073610;28;20052;-67
2021/07/02 00:15:59;;;;;;;43.25;18.95;;;;;;;;;;5073388;28;20040;-68
2021/07/02 00:18:45;;;;;;;36.58;18.58;;;;;;;;;;5073327;28;20098;-68
2021/07/02 00:21:30;;;;;;;34.30;17.48;;;;;;;;;;5073038;28;20090;-68
2021/07/02 00:24:15;;;;;;;43.33;18.10;;;;;;;;;;5072528;28;20122;-67
2021/07/02 00:27:01;;;;;;;36.65;18.27;;;;;;;;;;5072275;28;20077;-68
2021/07/02 00:29:46;;;;;;;44.58;18.35;;;;;;;;;;5073009;28;20040;-68
2021/07/02 00:32:32;;;;;;;41.35;16.05;;;;;;;;;;5073051;28;20115;-68
2021/07/02 00:35:17;;;;;;;33.58;17.52;;;;;;;;;;5072178;28;20146;-68
2021/07/02 00:38:02;;;;;;;34.80;16.33;;;;;;;;;;5073014;28;20044;-68
2021/07/02 00:40:47;;;;;;;31.90;16.40;;;;;;;;;;5071780;28;20047;-68
2021/07/02 00:43:33;;;;;;;39.88;17.50;;;;;;;;;;5072814;28;20056;-68
2021/07/02 00:46:18;;;;;;;42.90;18.02;;;;;;;;;;5071100;28;20045;-68
2021/07/02 00:49:04;;;;;;;33.20;15.90;;;;;;;;;;5072766;28;20152;-68
2021/07/02 00:51:49;;;;;;;33.38;15.32;;;;;;;;;;5072672;28;20040;-68
2021/07/02 00:54:38;;;;;;;30.67;17.17;;;;;;;;;;5085726;28;20048;-69
2021/07/02 00:57:24;;;;;;;42.33;17.58;;;;;;;;;;5070872;28;20509;-68
2021/07/02 01:00:10;;;;;;;32.05;15.90;;;;;;;;;;5056682;28;20049;-68
2021/07/02 01:02:56;;;;;;;35.08;17.33;;;;;;;;;;5072037;28;20040;-68
2021/07/02 01:05:41;;;;;;;37.05;16.70;;;;;;;;;;5071824;28;20125;-68
2021/07/02 01:08:27;;;;;;;35.95;17.80;;;;;;;;;;5057446;28;20513;-68
2021/07/02 01:11:13;;;;;;;31.33;16.05;;;;;;;;;;5072257;28;20044;-68
2021/07/02 01:13:59;;;;;;;26.35;14.43;;;;;;;;;;5071419;28;20064;-68
2021/07/02 01:16:45;;;;;;;25.15;13.68;;;;;;;;;;5070363;28;20047;-68
2021/07/02 01:19:31;;;;;;;28.58;15.40;;;;;;;;;;5070999;28;20051;-68
2021/07/02 01:22:26;;;;;;;29.70;14.77;;;;;;;;;;5072339;28;20044;-68
2021/07/02 01:25:15;;;;;;;29.52;14.88;;;;;;;;;;5071815;28;20098;-68
2021/07/02 01:28:00;;;;;;;24.30;13.98;;;;;;;;;;5070423;28;20161;-68
2021/07/02 01:30:47;;;;;;;26.65;13.60;;;;;;;;;;5070795;28;20052;-68
2021/07/02 01:33:32;;;;;;;23.45;14.10;;;;;;;;;;5070068;28;20123;-68
2021/07/02 01:36:19;;;;;;;27.35;14.88;;;;;;;;;;5072187;28;20134;-68
2021/07/02 01:39:05;;;;;;;25.77;13.75;;;;;;;;;;5072090;28;20647;-69
2021/07/02 01:41:51;;;;;;;29.83;14.70;;;;;;;;;;5071906;28;20056;-68
2021/07/02 01:44:45;;;;;;;27.00;14.45;;;;;;;;;;5071992;28;20501;-68
2021/07/02 01:47:32;;;;;;;23.83;13.95;;;;;;;;;;5071865;28;20052;-68
2021/07/02 01:50:19;;;;;;;20.10;13.93;;;;;;;;;;5070719;28;20051;-68
2021/07/02 01:53:04;;;;;;;22.00;14.05;;;;;;;;;;5070716;28;20078;-69
2021/07/02 01:55:51;;;;;;;25.17;13.98;;;;;;;;;;5070158;28;20127;-68
2021/07/02 01:58:37;;;;;;;25.25;15.02;;;;;;;;;;5070726;28;20175;-68
2021/07/02 02:01:31;;;;;;;30.13;16.15;;;;;;;;;;5070551;28;20040;-69
2021/07/02 02:04:22;;;;;;;24.35;15.93;;;;;;;;;;5069823;28;20037;-68
2021/07/02 02:07:08;;;;;;;29.95;14.88;;;;;;;;;;5071717;28;20115;-68
2021/07/02 02:09:56;;;;;;;29.52;15.75;;;;;;;;;;5070530;28;20048;-68
2021/07/02 02:12:42;;;;;;;23.55;15.25;;;;;;;;;;5084859;28;20047;-68
2021/07/02 02:15:28;;;;;;;27.02;15.57;;;;;;;;;;5073144;28;20048;-68
2021/07/02 02:18:14;;;;;;;27.67;15.38;;;;;;;;;;5075660;28;20052;-68
2021/07/02 02:21:02;;;;;;;29.42;15.23;;;;;;;;;;5074415;28;20419;-68
2021/07/02 02:23:48;;;;;;;29.05;16.17;;;;;;;;;;5074869;28;20498;-68
2021/07/02 02:26:34;;;;;;;29.88;16.05;;;;;;;;;;5074544;28;20556;-68
2021/07/02 02:29:21;;;;;;;34.28;16.13;;;;;;;;;;5074300;28;20068;-67
2021/07/02 02:32:07;;;;;;;27.15;16.20;;;;;;;;;;5075491;28;20122;-68
2021/07/02 02:34:53;;;;;;;27.17;15.90;;;;;;;;;;5073629;28;20048;-68
2021/07/02 02:37:38;;;;;;;28.13;14.57;;;;;;;;;;5075396;28;20052;-68
2021/07/02 02:40:24;;;;;;;30.75;15.77;;;;;;;;;;5074923;28;20047;-68
2021/07/02 02:43:09;;;;;;;30.52;15.75;;;;;;;;;;5075220;28;20045;-68
2021/07/02 02:45:55;;;;;;;28.45;15.30;;;;;;;;;;5087157;28;20486;-68
2021/07/02 02:48:41;;;;;;;28.23;14.93;;;;;;;;;;5074345;28;20047;-68
2021/07/02 02:51:27;;;;;;;30.13;16.92;;;;;;;;;;5072838;28;20494;-68
2021/07/02 02:54:12;;;;;;;25.50;14.80;;;;;;;;;;5075039;28;20445;-68
2021/07/02 02:57:04;;;;;;;31.95;15.93;;;;;;;;;;5074850;28;20053;-68
2021/07/02 02:59:51;;;;;;;29.42;16.38;;;;;;;;;;5073696;28;20086;-68
2021/07/02 03:02:38;;;;;;;32.97;16.45;;;;;;;;;;5074878;28;20512;-68
2021/07/02 03:05:25;;;;;;;31.38;16.00;;;;;;;;;;5072773;28;20060;-68
2021/07/02 03:08:11;;;;;;;32.05;18.20;;;;;;;;;;5073702;28;20045;-68
2021/07/02 03:11:05;;;;;;;35.67;18.75;;;;;;;;;;5073514;28;20043;-68
2021/07/02 03:13:51;;;;;;;34.45;18.00;;;;;;;;;;5074689;28;20048;-68
2021/07/02 03:16:39;;;;;;;34.17;19.10;;;;;;;;;;5072931;28;20048;-68
2021/07/02 03:19:24;;;;;;;37.22;20.27;;;;;;;;;;5073867;28;20059;-68
2021/07/02 03:22:14;;;;;;;36.65;19.70;;;;;;;;;;5073749;28;20041;-68
2021/07/02 03:25:00;;;;;;;37.13;20.20;;;;;;;;;;5073428;28;20052;-68
2021/07/02 03:27:45;;;;;;;34.92;19.73;;;;;;;;;;5072669;28;20696;-68
2021/07/02 03:30:31;;;;;;;41.15;20.65;;;;;;;;;;5074163;28;20044;-68
2021/07/02 03:33:17;;;;;;;39.20;20.35;;;;;;;;;;5074357;28;20037;-67
2021/07/02 03:36:02;;;;;;;36.95;20.33;;;;;;;;;;5072303;28;20055;-68
2021/07/02 03:38:48;;;;;;;35.53;20.17;;;;;;;;;;5073052;28;20040;-68
2021/07/02 03:41:34;;;;;;;39.33;19.95;;;;;;;;;;5072984;28;20052;-68
2021/07/02 03:44:19;;;;;;;31.52;18.83;;;;;;;;;;5074125;28;20487;-68
2021/07/02 03:47:07;;;;;;;39.53;20.52;;;;;;;;;;5072165;28;20040;-68
2021/07/02 03:49:53;;;;;;;40.28;20.27;;;;;;;;;;5072748;28;20044;-68
2021/07/02 03:52:39;;;;;;;33.88;20.98;;;;;;;;;;5072879;28;20041;-68
2021/07/02 03:55:25;;;;;;;36.92;20.95;;;;;;;;;;5073963;28;20486;-68
2021/07/02 03:58:10;;;;;;;41.20;20.30;;;;;;;;;;5072657;28;20036;-68
2021/07/02 04:00:56;;;;;;;35.78;21.30;;;;;;;;;;5073512;28;20047;-68
2021/07/02 04:03:41;;;;;;;44.67;20.45;;;;;;;;;;5073774;28;20043;-68
2021/07/02 04:06:27;;;;;;;44.85;22.55;;;;;;;;;;5073590;28;20044;-68
2021/07/02 04:09:12;;;;;;;48.60;22.00;;;;;;;;;;5072864;28;20041;-68
2021/07/02 04:11:57;;;;;;;32.75;21.08;;;;;;;;;;5072635;28;20047;-68
2021/07/02 04:14:44;;;;;;;42.45;22.67;;;;;;;;;;5073572;28;20044;-68
2021/07/02 04:17:29;;;;;;;40.85;22.92;;;;;;;;;;5072587;28;20110;-68
2021/07/02 04:20:14;;;;;;;46.03;22.38;;;;;;;;;;5073202;28;20485;-68
2021/07/02 04:23:00;;;;;;;42.53;23.52;;;;;;;;;;5073382;28;20173;-68
2021/07/02 04:25:45;;;;;;;47.70;22.98;;;;;;;;;;5073253;28;20048;-69
2021/07/02 04:28:31;;;;;;;44.13;23.60;;;;;;;;;;5072044;28;20036;-68
2021/07/02 04:31:16;;;;;;;36.75;21.27;;;;;;;;;;5073190;28;20437;-68
2021/07/02 04:34:02;;;;;;;42.53;23.75;;;;;;;;;;5073094;28;20072;-68
2021/07/02 04:36:48;;;;;;;37.80;22.10;;;;;;;;;;5100273;28;20049;-68
2021/07/02 04:39:33;;;;;;;42.42;21.77;;;;;;;;;;5071524;28;20052;-68
2021/07/02 04:42:18;;;;;;;36.72;20.40;;;;;;;;;;5072974;28;20605;-68
2021/07/02 04:45:05;;;;;;;33.55;21.55;;;;;;;;;;5073049;28;20041;-69
2021/07/02 04:47:51;;;;;;;38.38;22.58;;;;;;;;;;5072851;28;20040;-68
2021/07/02 04:50:36;;;;;;;42.40;22.90;;;;;;;;;;5071503;28;20166;-69
2021/07/02 04:53:22;;;;;;;39.60;22.60;;;;;;;;;;5072639;28;20052;-68
2021/07/02 04:56:11;;;;;;;50.05;22.63;;;;;;;;;;5072731;28;20445;-68
2021/07/02 04:58:58;;;;;;;43.40;23.50;;;;;;;;;;5071692;28;20048;-68
2021/07/02 05:01:44;;;;;;;41.92;24.05;;;;;;;;;;5072421;28;20041;-68
2021/07/02 05:04:29;;;;;;;38.85;23.48;;;;;;;;;;5072602;28;20502;-70
2021/07/02 05:07:14;;;;;;;48.92;24.73;;;;;;;;;;5071108;28;20036;-71
2021/07/02 05:10:01;;;;;;;43.75;24.58;;;;;;;;;;5088848;28;20048;-71
2021/07/02 05:12:46;;;;;;;45.72;24.33;;;;;;;;;;5069511;28;20530;-69
2021/07/02 05:15:31;;;;;;;46.72;25.67;;;;;;;;;;5099775;28;20048;-69
2021/07/02 05:18:17;;;;;;;53.35;27.05;;;;;;;;;;5072291;28;20044;-68
2021/07/02 05:21:02;;;;;;;46.60;25.52;;;;;;;;;;5071304;28;20507;-69
2021/07/02 05:23:47;;;;;;;48.95;26.00;;;;;;;;;;5071131;28;20163;-69
2021/07/02 05:26:32;;;;;;;47.40;26.58;;;;;;;;;;5072032;28;20043;-70
2021/07/02 05:29:18;;;;;;;56.67;29.02;;;;;;;;;;5072515;28;20493;-69
2021/07/02 05:32:04;;;;;;;47.60;26.60;;;;;;;;;;5071745;28;20051;-69
2021/07/02 05:34:48;;;;;;;48.28;26.60;;;;;;;;;;5072302;28;20170;-69
2021/07/02 05:37:34;;;;;;;49.15;28.58;;;;;;;;;;5072221;28;20514;-69
2021/07/02 05:40:19;;;;;;;51.25;27.10;;;;;;;;;;5070387;28;20045;-69
2021/07/02 05:43:05;;;;;;;52.35;27.83;;;;;;;;;;5072087;28;20069;-69
2021/07/02 05:45:51;;;;;;;51.47;27.02;;;;;;;;;;5070485;28;20045;-69
2021/07/02 05:48:36;;;;;;;57.75;26.95;;;;;;;;;;5070828;28;20510;-69
2021/07/02 05:51:21;;;;;;;51.15;28.10;;;;;;;;;;5070052;28;20047;-69
2021/07/02 05:54:06;;;;;;;54.13;27.48;;;;;;;;;;5071786;28;20071;-69
2021/07/02 05:56:52;;;;;;;58.70;30.15;;;;;;;;;;5071970;28;20410;-69
2021/07/02 05:59:41;;;;;;;49.67;27.13;;;;;;;;;;5071664;28;20052;-69
2021/07/02 06:02:26;;;;;;;56.40;29.38;;;;;;;;;;5070122;28;20041;-69
2021/07/02 06:05:12;;;;;;;49.47;27.73;;;;;;;;;;5070855;28;20109;-69
2021/07/02 06:07:58;;;;;;;49.78;26.50;;;;;;;;;;5070844;28;20044;-69
2021/07/02 06:10:43;;;;;;;55.13;29.40;;;;;;;;;;5069330;28;20043;-69
2021/07/02 06:13:28;;;;;;;51.38;27.58;;;;;;;;;;5070783;28;20048;-69
2021/07/02 06:16:13;;;;;;;44.78;24.85;;;;;;;;;;5071794;28;20052;-69
2021/07/02 06:18:59;;;;;;;46.28;25.27;;;;;;;;;;5071596;28;20113;-68
2021/07/02 06:21:45;;;;;;;45.13;25.08;;;;;;;;;;5070868;28;20037;-69
2021/07/02 06:24:30;;;;;;;44.00;24.23;;;;;;;;;;5071575;28;20050;-70
2021/07/02 06:27:16;;;;;;;37.33;23.50;;;;;;;;;;5071391;28;20041;-69
2021/07/02 06:30:01;;;;;;;40.28;22.70;;;;;;;;;;5070383;28;20072;-69
2021/07/02 06:32:46;;;;;;;37.28;21.95;;;;;;;;;;5070703;28;20040;-69
2021/07/02 06:35:32;;;;;;;35.00;21.08;;;;;;;;;;5071690;28;20451;-69
2021/07/02 06:38:17;;;;;;;32.30;20.38;;;;;;;;;;5070603;28;20040;-69
2021/07/02 06:41:03;;;;;;;32.20;19.02;;;;;;;;;;5070557;28;20121;-69
2021/07/02 06:43:48;;;;;;;31.20;20.20;;;;;;;;;;5070867;28;20040;-69
2021/07/02 06:46:54;;;;;;;33.65;20.17;;;;;;;;;;5070623;28;20143;-69
2021/07/02 06:49:39;;;;;;;33.75;20.58;;;;;;;;;;5071344;28;20060;-69
2021/07/02 06:52:25;;;;;;;35.75;20.73;;;;;;;;;;5070704;28;20075;-69
2021/07/02 06:55:31;;;;;;;30.83;19.15;;;;;;;;;;5098961;28;20045;-69
2021/07/02 06:58:16;;;;;;;39.58;22.23;;;;;;;;;;5071431;28;20498;-69
2021/07/02 07:01:01;;;;;;;36.92;22.95;;;;;;;;;;5070261;28;20074;-69
2021/07/02 07:03:46;;;;;;;34.63;21.38;;;;;;;;;;5074884;28;20094;-69
2021/07/02 07:06:32;;;;;;;28.02;19.17;;;;;;;;;;5074790;28;20140;-69
2021/07/02 07:09:18;;;;;;;36.83;19.58;;;;;;;;;;5075959;28;20044;-69
2021/07/02 07:12:04;;;;;;;34.50;20.27;;;;;;;;;;5082213;28;20177;-69
2021/07/02 07:14:49;;;;;;;25.45;17.23;;;;;;;;;;5094264;28;20040;-69
2021/07/02 07:17:35;;;;;;;30.77;19.42;;;;;;;;;;5095081;28;20082;-69
2021/07/02 07:20:20;;;;;;;25.30;18.08;;;;;;;;;;5093573;28;20040;-69
2021/07/02 07:23:05;;;;;;;32.08;18.58;;;;;;;;;;5064385;28;20045;-69
2021/07/02 07:25:51;;;;;;;29.77;18.30;;;;;;;;;;5074500;28;20036;-69
2021/07/02 07:28:38;;;;;;;27.17;18.10;;;;;;;;;;5074473;28;20041;-69
2021/07/02 07:31:23;;;;;;;23.20;17.15;;;;;;;;;;5073334;28;20043;-71
2021/07/02 07:34:09;;;;;;;27.27;17.40;;;;;;;;;;5067976;28;20048;-70
2021/07/02 07:36:57;;;;;;;26.13;18.00;;;;;;;;;;5054245;28;20131;-69
2021/07/02 07:39:43;;;;;;;24.05;17.60;;;;;;;;;;5053910;28;20037;-69
2021/07/02 07:42:29;;;;;;;30.45;18.13;;;;;;;;;;5063356;28;20055;-70
2021/07/02 07:45:15;;;;;;;28.75;18.23;;;;;;;;;;5074449;28;20590;-70
2021/07/02 07:48:00;;;;;;;24.20;16.10;;;;;;;;;;5074258;28;20560;-69
2021/07/02 07:50:49;;;;;;;20.25;14.90;;;;;;;;;;5073754;28;20079;-70
2021/07/02 07:53:34;;;;;;;21.52;16.02;;;;;;;;;;5073140;28;20103;-69
2021/07/02 07:56:20;;;;;;;22.45;15.45;;;;;;;;;;5073642;28;20041;-69
2021/07/02 07:59:05;;;;;;;17.35;14.60;;;;;;;;;;5073709;28;20040;-69
2021/07/02 08:01:51;;;;;;;18.85;13.80;;;;;;;;;;5071698;28;20044;-69
2021/07/02 08:04:37;;;;;;;16.58;13.13;;;;;;;;;;5065270;28;20045;-69
2021/07/02 08:07:22;;;;;;;18.33;15.25;;;;;;;;;;5071652;28;20040;-69
2021/07/02 08:10:10;;;;;;;19.75;14.88;;;;;;;;;;5073060;28;20119;-68
2021/07/02 08:12:55;;;;;;;19.80;15.30;;;;;;;;;;5073360;28;20076;-69
2021/07/02 08:15:43;;;;;;;22.13;13.80;;;;;;;;;;5073243;28;20051;-69
2021/07/02 08:18:30;;;;;;;17.20;13.25;;;;;;;;;;5071664;28;20075;-69
2021/07/02 08:21:19;;;;;;;17.35;13.43;;;;;;;;;;5071099;28;20041;-69
2021/07/02 08:24:04;;;;;;;20.00;14.32;;;;;;;;;;5073344;28;20496;-68
2021/07/02 08:26:55;;;;;;;20.77;15.82;;;;;;;;;;5073177;28;20063;-69
2021/07/02 08:29:41;;;;;;;20.70;15.60;;;;;;;;;;5073040;28;20070;-69
2021/07/02 08:32:30;;;;;;;16.95;14.25;;;;;;;;;;5070740;28;20117;-69
2021/07/02 08:35:15;;;;;;;20.00;14.25;;;;;;;;;;5072916;28;20041;-69
2021/07/02 08:38:00;;;;;;;17.48;13.18;;;;;;;;;;5072998;28;20048;-69
2021/07/02 08:40:46;;;;;;;19.63;13.25;;;;;;;;;;5071795;28;20487;-69
2021/07/02 08:43:31;;;;;;;18.88;14.88;;;;;;;;;;5071357;28;20189;-69
2021/07/02 08:46:17;;;;;;;19.50;14.20;;;;;;;;;;5072909;28;20044;-69
2021/07/02 08:49:03;;;;;;;21.55;14.95;;;;;;;;;;5072755;28;20049;-69
2021/07/02 08:51:49;;;;;;;22.92;15.77;;;;;;;;;;5071887;28;20044;-69
2021/07/02 08:54:34;;;;;;;25.80;17.77;;;;;;;;;;5071726;28;20044;-68
2021/07/02 08:57:19;;;;;;;21.65;15.25;;;;;;;;;;5072563;28;20059;-69
2021/07/02 09:00:05;;;;;;;20.40;15.07;;;;;;;;;;5070595;28;20505;-68
2021/07/02 09:02:50;;;;;;;21.95;15.48;;;;;;;;;;5052706;28;20047;-70
2021/07/02 09:05:37;;;;;;;20.70;15.70;;;;;;;;;;5052553;28;20134;-69
2021/07/02 09:08:23;;;;;;;20.30;14.07;;;;;;;;;;5052514;28;20037;-69
2021/07/02 09:11:27;;;;;;;26.42;17.20;;;;;;;;;;5059885;28;20457;-69
2021/07/02 09:14:21;;;;;;;21.52;16.42;;;;;;;;;;5071485;28;20483;-69
2021/07/02 09:17:10;;;;;;;27.73;17.77;;;;;;;;;;5057304;28;20048;-69
2021/07/02 09:20:05;;;;;;;22.13;15.80;;;;;;;;;;5072059;28;20506;-68
2021/07/02 09:22:51;;;;;;;22.45;15.88;;;;;;;;;;5070691;28;20048;-69
2021/07/02 09:25:37;;;;;;;23.92;16.35;;;;;;;;;;5072108;28;20109;-68
2021/07/02 09:28:26;;;;;;;22.08;15.52;;;;;;;;;;5072164;28;20068;-69
2021/07/02 09:31:11;;;;;;;21.50;15.23;;;;;;;;;;5071125;28;20056;-70
2021/07/02 09:33:57;;;;;;;20.95;14.38;;;;;;;;;;5072266;28;20046;-69
2021/07/02 09:36:42;;;;;;;21.13;14.55;;;;;;;;;;5072109;28;20147;-68
2021/07/02 09:39:28;;;;;;;23.48;15.82;;;;;;;;;;5070836;28;20063;-70
2021/07/02 09:42:23;;;;;;;21.40;14.88;;;;;;;;;;5069617;28;20502;-69
2021/07/02 09:45:09;;;;;;;21.25;15.93;;;;;;;;;;5071046;28;20407;-69
2021/07/02 09:47:55;;;;;;;20.20;15.23;;;;;;;;;;5071916;28;20051;-69
2021/07/02 09:50:50;;;;;;;21.88;14.55;;;;;;;;;;5071695;28;20052;-64
2021/07/02 09:53:36;;;;;;;20.98;14.10;;;;;;;;;;5070824;28;20037;-64
2021/07/02 09:56:21;;;;;;;15.55;11.52;;;;;;;;;;5071886;28;20098;-64
2021/07/02 09:59:16;;;;;;;9.63;7.95;;;;;;;;;;5071414;28;20036;-64
2021/07/02 10:02:17;;;;;;;10.60;7.88;;;;;;;;;;5068417;28;20497;-64
2021/07/02 10:05:03;;;;;;;13.20;8.83;;;;;;;;;;5069393;28;20126;-64
2021/07/02 10:07:58;;;;;;;12.73;9.10;;;;;;;;;;5069961;28;20059;-64
2021/07/02 10:10:44;;;;;;;12.18;9.30;;;;;;;;;;5065672;28;20442;-64
2021/07/02 10:13:34;;;;;;;12.85;9.43;;;;;;;;;;5066907;28;20051;-64
2021/07/02 10:16:19;;;;;;;11.15;8.95;;;;;;;;;;5068149;28;20055;-64
2021/07/02 10:19:04;;;;;;;11.90;9.68;;;;;;;;;;5069791;28;20047;-64
2021/07/02 10:21:50;;;;;;;11.13;8.48;;;;;;;;;;5089989;28;20145;-64
2021/07/02 10:24:35;;;;;;;12.23;8.90;;;;;;;;;;5069649;28;20051;-63
2021/07/02 10:27:20;;;;;;;16.17;10.07;;;;;;;;;;5071717;28;20067;-64
2021/07/02 10:30:08;;;;;;;13.38;9.82;;;;;;;;;;5071488;28;20126;-64
2021/07/02 10:33:00;;;;;;;13.05;10.50;;;;;;;;;;5070521;28;20167;-64
2021/07/02 10:35:47;;;;;;;15.25;12.05;;;;;;;;;;5050934;28;20522;-64
2021/07/02 10:38:39;;;;;;;14.52;11.38;;;;;;;;;;5054296;28;20052;-64
2021/07/02 10:41:30;;;;;;;18.63;12.57;;;;;;;;;;5055078;28;20166;-64
2021/07/02 10:44:18;;;;;;;16.20;11.52;;;;;;;;;;5061904;28;20178;-64
2021/07/02 10:47:03;;;;;;;17.05;11.35;;;;;;;;;;5075258;28;20040;-64
2021/07/02 10:49:50;;;;;;;15.93;11.65;;;;;;;;;;5075269;28;20052;-64
2021/07/02 10:52:40;;;;;;;13.55;11.43;;;;;;;;;;5075505;28;20055;-64
2021/07/02 10:55:31;;;;;;;16.40;11.63;;;;;;;;;;5074802;28;20098;-64
2021/07/02 10:58:17;;;;;;;18.73;11.52;;;;;;;;;;5075133;28;20060;-64
2021/07/02 11:01:11;;;;;;;13.55;9.02;;;;;;;;;;5101479;28;20059;-64
2021/07/02 11:04:16;;;;;;;15.30;10.48;;;;;;;;;;5075193;28;20058;-64
2021/07/02 11:07:01;;;;;;;12.55;9.48;;;;;;;;;;5073940;28;20032;-64
2021/07/02 11:09:49;;;;;;;14.15;10.43;;;;;;;;;;5075015;28;20040;-64
2021/07/02 11:12:35;;;;;;;11.35;9.10;;;;;;;;;;5074109;28;20055;-64
2021/07/02 11:15:21;;;;;;;14.55;10.45;;;;;;;;;;5075215;28;20052;-64
2021/07/02 11:18:10;;;;;;;14.43;10.25;;;;;;;;;;5057978;27;20054;-64
2021/07/02 11:20:56;;;;;;;11.63;8.75;;;;;;;;;;5072106;28;20046;-64
2021/07/02 11:23:41;;;;;;;12.02;9.23;;;;;;;;;;5072301;28;20052;-64
2021/07/02 11:26:41;;;;;;;10.05;7.47;;;;;;;;;;5073468;28;20175;-64
2021/07/02 11:29:36;;;;;;;12.32;7.85;;;;;;;;;;5098662;22;20415;-63
2021/07/02 11:32:31;;;;;;;9.18;7.22;;;;;;;;;;5043077;28;20139;-63
2021/07/02 11:35:20;;;;;;;10.60;7.22;;;;;;;;;;5051032;28;20130;-67
2021/07/02 11:38:26;;;;;;;10.93;7.13;;;;;;;;;;5051534;28;20056;-66
2021/07/02 11:41:17;;;;;;;9.90;7.60;;;;;;;;;;5052037;28;20052;-68
2021/07/02 11:44:03;;;;;;;10.50;7.63;;;;;;;;;;5031852;28;20064;-66
2021/07/02 11:46:57;;;;;;;9.68;7.15;;;;;;;;;;5051955;28;20564;-67
2021/07/02 11:49:48;;;;;;;7.57;6.40;;;;;;;;;;5032284;28;20577;-68
2021/07/02 11:52:36;;;;;;;6.53;5.53;;;;;;;;;;5037730;28;20552;-67
2021/07/02 11:55:25;;;;;;;8.02;6.38;;;;;;;;;;5051412;28;20521;-68
2021/07/02 11:58:14;;;;;;;4.57;3.50;;;;;;;;;;5051470;28;20411;-67
2021/07/02 12:01:00;;;;;;;6.00;3.83;;;;;;;;;;5050978;28;20525;-68
2021/07/02 12:03:45;;;;;;;4.07;2.78;;;;;;;;;;5052003;28;20518;-68
2021/07/02 12:06:35;;;;;;;3.80;3.30;;;;;;;;;;5052034;28;20077;-67
2021/07/02 12:09:21;;;;;;;5.88;4.32;;;;;;;;;;5030538;28;20060;-69
2021/07/02 12:12:06;;;;;;;6.28;4.72;;;;;;;;;;5031259;28;20091;-68
2021/07/02 12:14:51;;;;;;;5.25;4.30;;;;;;;;;;5031693;28;20075;-68
2021/07/02 12:17:37;;;;;;;6.20;4.10;;;;;;;;;;5037018;28;20053;-68
2021/07/02 12:20:22;;;;;;;6.85;4.55;;;;;;;;;;5063457;28;20560;-68
2021/07/02 12:23:07;;;;;;;4.97;4.47;;;;;;;;;;5049507;28;20044;-69
2021/07/02 12:26:07;;;;;;;4.65;3.90;;;;;;;;;;5048607;28;20055;-68
2021/07/02 12:28:58;;;;;;;7.10;5.20;;;;;;;;;;5054437;28;20139;-68
2021/07/02 12:31:44;;;;;;;4.95;4.45;;;;;;;;;;5048045;28;20048;-68
2021/07/02 12:34:39;;;;;;;6.07;4.40;;;;;;;;;;5031938;28;20064;-69
2021/07/02 12:37:24;;;;;;;6.13;5.07;;;;;;;;;;5048419;28;20068;-69
2021/07/02 12:40:12;;;;;;;7.13;6.32;;;;;;;;;;5048809;28;20063;-69
2021/07/02 12:42:57;;;;;;;9.45;4.85;;;;;;;;;;5050708;28;20166;-69
2021/07/02 12:45:42;;;;;;;7.65;5.65;;;;;;;;;;5054950;28;20523;-69
2021/07/02 12:48:27;;;;;;;6.93;4.78;;;;;;;;;;5048471;28;20155;-69
2021/07/02 12:51:12;;;;;;;13.35;5.13;;;;;;;;;;5046003;28;20387;-68
2021/07/02 12:57:02;;;;;;;6.28;5.68;;;;;;;;;;5048628;28;20162;-68
2021/07/02 12:59:48;;;;;;;5.85;5.35;;;;;;;;;;5047610;28;20068;-69
2021/07/02 13:02:35;;;;;;;7.32;5.72;;;;;;;;;;5050553;28;20037;-69
2021/07/02 13:05:20;;;;;;;7.70;6.45;;;;;;;;;;5049271;28;20522;-70
2021/07/02 13:08:09;;;;;;;7.35;6.55;;;;;;;;;;5049161;28;20052;-69
2021/07/02 13:10:54;;;;;;;5.20;4.70;;;;;;;;;;5029007;28;20180;-68
2021/07/02 13:13:40;;;;;;;6.28;4.85;;;;;;;;;;5030765;28;20049;-68
2021/07/02 13:16:25;;;;;;;8.25;5.40;;;;;;;;;;5047025;28;20053;-68
2021/07/02 13:19:11;;;;;;;7.75;4.78;;;;;;;;;;5033975;28;20044;-69
2021/07/02 13:22:11;;;;;;;6.95;4.93;;;;;;;;;;5050027;28;20049;-68
2021/07/02 13:25:02;;;;;;;5.78;4.38;;;;;;;;;;5062813;28;20041;-68
2021/07/02 13:27:54;;;;;;;7.38;4.38;;;;;;;;;;5050316;28;20041;-68
2021/07/02 13:30:39;;;;;;;;;;;;;;;;;;5059187;28;20053;-68
2021/07/02 13:33:24;;;;;;;4.97;4.47;;;;;;;;;;5044532;28;19921;-68
2021/07/02 13:36:13;;;;;;;7.82;5.18;;;;;;;;;;5049104;28;20063;-68
2021/07/02 13:38:59;;;;;;;7.85;5.20;;;;;;;;;;5049761;28;20052;-68
2021/07/02 13:41:46;;;;;;;5.18;4.32;;;;;;;;;;5048576;28;20053;-68
2021/07/02 13:44:35;;;;;;;7.57;5.10;;;;;;;;;;5050397;28;20106;-68
2021/07/02 13:47:25;;;;;;;5.47;4.78;;;;;;;;;;5048696;28;20076;-68
2021/07/02 13:50:11;;;;;;;8.90;5.55;;;;;;;;;;5047445;28;20144;-68
2021/07/02 13:52:56;;;;;;;7.13;5.13;;;;;;;;;;5049636;28;20119;-68
2021/07/02 13:55:41;;;;;;;7.25;5.88;;;;;;;;;;5034606;28;20055;-68
2021/07/02 13:58:26;;;;;;;6.90;4.75;;;;;;;;;;5049171;28;20187;-68
2021/07/02 14:01:12;;;;;;;6.30;5.15;;;;;;;;;;5048292;28;20059;-67
2021/07/02 14:03:57;;;;;;;5.80;4.60;;;;;;;;;;5048114;28;20037;-67
2021/07/02 14:06:42;;;;;;;9.15;4.97;;;;;;;;;;5049267;28;20060;-68
2021/07/02 14:09:28;;;;;;;6.85;5.60;;;;;;;;;;5048946;28;20052;-68
2021/07/02 14:12:14;;;;;;;6.88;5.20;;;;;;;;;;5052012;28;20052;-68
2021/07/02 14:15:00;;;;;;;6.50;5.72;;;;;;;;;;5053940;28;20067;-68
2021/07/02 14:17:45;;;;;;;6.47;5.57;;;;;;;;;;5054097;28;20033;-68
2021/07/02 14:20:31;;;;;;;8.48;6.20;;;;;;;;;;5053207;28;20052;-68
2021/07/02 14:23:16;;;;;;;5.85;5.20;;;;;;;;;;5050487;28;20107;-68
2021/07/02 14:26:02;;;;;;;6.43;5.70;;;;;;;;;;5053420;28;20758;-68
2021/07/02 14:28:47;;;;;;;8.73;6.13;;;;;;;;;;5053387;28;20049;-68
2021/07/02 14:31:33;;;;;;;7.68;5.18;;;;;;;;;;5036847;28;20049;-68
2021/07/02 14:34:18;;;;;;;6.10;5.50;;;;;;;;;;5059434;28;20041;-69
2021/07/02 14:37:03;;;;;;;6.13;5.20;;;;;;;;;;5050610;28;20059;-68
2021/07/02 14:39:49;;;;;;;6.68;5.97;;;;;;;;;;5052350;28;20044;-68
2021/07/02 14:42:34;;;;;;;6.80;5.25;;;;;;;;;;5048747;28;20056;-68
2021/07/02 14:45:19;;;;;;;5.32;4.80;;;;;;;;;;5047726;28;20099;-68
2021/07/02 14:48:05;;;;;;;7.78;5.38;;;;;;;;;;5051501;28;20190;-68
2021/07/02 14:51:01;;;;;;;6.95;4.40;;;;;;;;;;5052340;28;20048;-69
2021/07/02 14:53:49;;;;;;;6.47;4.50;;;;;;;;;;5051751;28;20159;-68
2021/07/02 14:56:36;;;;;;;7.30;4.00;;;;;;;;;;5051718;28;20098;-68
2021/07/02 14:59:21;;;;;;;5.03;4.50;;;;;;;;;;5049263;28;20201;-68
2021/07/02 15:02:06;;;;;;;6.85;5.00;;;;;;;;;;5049770;28;20053;-68
2021/07/02 15:04:52;;;;;;;5.25;4.05;;;;;;;;;;5051024;28;20051;-68
2021/07/02 15:07:37;;;;;;;6.20;4.15;;;;;;;;;;5052091;28;20052;-68
2021/07/02 15:10:24;;;;;;;5.70;4.50;;;;;;;;;;5050509;28;20093;-68
2021/07/02 15:13:09;;;;;;;6.70;4.65;;;;;;;;;;5050528;28;20045;-67
2021/07/02 15:15:54;;;;;;;5.55;4.07;;;;;;;;;;5053056;28;20052;-67
2021/07/02 15:18:39;;;;;;;7.13;5.10;;;;;;;;;;5045481;28;20049;-67
2021/07/02 15:21:26;;;;;;;5.70;4.47;;;;;;;;;;5049630;28;20036;-67
2021/07/02 15:24:12;;;;;;;7.15;4.55;;;;;;;;;;5051130;28;20056;-67
2021/07/02 15:26:57;;;;;;;8.50;4.38;;;;;;;;;;5052139;28;20049;-67
2021/07/02 15:30:02;;;;;;;6.05;4.65;;;;;;;;;;5052137;28;20048;-67
2021/07/02 15:32:47;;;;;;;5.18;4.40;;;;;;;;;;5014911;28;20423;-66
2021/07/02 15:35:33;;;;;;;13.73;4.60;;;;;;;;;;5052070;28;20068;-66
2021/07/02 15:38:19;;;;;;;4.82;4.13;;;;;;;;;;5036690;28;20127;-66
2021/07/02 15:41:04;;;;;;;5.95;4.20;;;;;;;;;;5051586;28;20045;-66
2021/07/02 15:43:50;;;;;;;4.47;4.07;;;;;;;;;;5031147;28;20053;-66
2021/07/02 15:46:35;;;;;;;5.20;3.33;;;;;;;;;;5032299;28;20053;-66
2021/07/02 15:49:20;;;;;;;6.22;4.10;;;;;;;;;;5031000;28;20057;-66
2021/07/02 15:52:06;;;;;;;6.85;4.20;;;;;;;;;;5034449;28;20056;-66
2021/07/02 15:54:51;;;;;;;5.68;3.60;;;;;;;;;;5052311;28;20115;-66
2021/07/02 15:57:37;;;;;;;5.78;4.40;;;;;;;;;;5051707;28;20514;-66
2021/07/02 16:00:23;;;;;;;5.28;4.30;;;;;;;;;;5049170;28;20048;-66
2021/07/02 16:03:12;;;;;;;7.32;5.25;;;;;;;;;;5050040;28;20045;-66
2021/07/02 16:05:57;;;;;;;7.38;5.03;;;;;;;;;;5050627;28;20128;-66
2021/07/02 16:08:43;;;;;;;6.05;4.40;;;;;;;;;;5031434;28;20046;-66
2021/07/02 16:11:28;;;;;;;8.70;4.50;;;;;;;;;;5031039;28;20037;-66
2021/07/02 16:14:13;;;;;;;5.95;4.75;;;;;;;;;;5044675;28;20526;-66
2021/07/02 16:16:59;;;;;;;6.75;4.43;;;;;;;;;;5051257;28;20052;-66
2021/07/02 16:19:44;;;;;;;6.60;5.03;;;;;;;;;;5051532;28;20111;-66
2021/07/02 16:22:29;;;;;;;8.90;4.72;;;;;;;;;;5066377;28;20045;-66
2021/07/02 16:25:15;;;;;;;6.45;4.38;;;;;;;;;;5028870;28;20134;-66